Abram, TX

8:45 AM CDT on September 01, 2014 (GMT -0500)
McAllen Miller International | Change Station
CLOSE
Current Station
Airport
Location: McAllen,
Elevation: 105 ft
Nearby Weather Stations

Elev 105 ft 26.18 °N, 98.24 °W | Updated 52 minutes ago

Clear
Clear
79 °F
Feels Like 79 °F
N
5
Wind Variable Wind from ESE

Today
High -- | Low -- °F
--% Chance of Precip.
Yesterday
High -- | Low -- °F
Precip. -- in
7:13 AM 7:52 PM
Waxing Crescent, 41% visible
Pressure 29.90 in
Visibility 6.0 miles
Clouds Clear
Dew Point 78 °F
Humidity 97%
Rainfall 0.00 in
Snow Depth Not available.
UV 0 out of 12
Pollen 9.30 out of 12
Ozone Good
PM2.5 Good
Flu Activity Not available.
METAR KMFE 011253Z 11004KT 6SM BR CLR 26/26 A2990 RMK AO2 SLP123 T02610256

More Conditions Fewer Conditions

Pressure 29.90 in
Visibility 6.0 miles
Clouds Clear
Dew Point 78 °F
Humidity 97%
Rainfall 0.00 in
Snow Depth Not available.
UV 0 out of 12
Pollen 9.30 out of 12
Ozone Good
PM2.5 Good
Flu Activity Not available.
METAR KMFE 011253Z 11004KT 6SM BR CLR 26/26 A2990 RMK AO2 SLP123 T02610256

More Conditions Fewer Conditions

10-Day Weather Forecast

Almanac

Astronomy

Sep. 01, 2014 Rise Set
Actual Time 7:13 AM CDT 7:52 PM CDT
Civil Twilight 6:49 AM CDT 8:16 PM CDT
Nautical Twilight 6:22 AM CDT 8:43 PM CDT
Astronomical Twilight 5:54 AM CDT 9:11 PM CDT
Moon 1:22 PM CDT No Moon Set
Length of Visible Light 13h 26m
Length of Day
12h 39m
Tomorrow will be 1m 28s shorter.
Waxing Crescent, 41% of the Moon is Illuminated
Today
Waxing Crescent
Sep 2
First Quarter
Sep 8
Full
Sep 15
Last Quarter
Sep 24
New

Today's Extremes

State Highs State Lows

Community

WunderPhotos

Upload Photos

1,749,222 photos uploaded!

Nearby

Air Quality

  Air Quality AQ Index Pollutant
Yesterday Good
PM2.5
Yesterday Good
OZONE
Current Good
PM2.5
Current Good
OZONE
Monday Good
PM10
Monday Good
OZONE
Tuesday Good
PM10
Tuesday Good
OZONE
Wednesday Good
PM10
Wednesday Good
OZONE
Thursday Good
PM10
Thursday Good
OZONE

Snow Depth

Station Depth Elevation
No new snow has been reported.

Earthquake Activity

City Distance Mag. Time & Date
No recent earthquake activity has been reported nearby.
Minimum magnitude displayed is 2.5.

Coastal Water Temperatures

Place Temperature
No Stations Reporting

Nearby Weather Stations